sensor_id;sensor_type;location;lat;lon;timestamp;P1;durP1;ratioP1;P2;durP2;ratioP2
17091;SDS011;8661;45.700;4.880;2023-02-17T00:00:51;22.63;;;11.37;;
17091;SDS011;8661;45.700;4.880;2023-02-17T00:03:18;17.27;;;11.73;;
17091;SDS011;8661;45.700;4.880;2023-02-17T00:05:46;20.50;;;11.73;;
17091;SDS011;8661;45.700;4.880;2023-02-17T00:08:13;19.00;;;12.20;;
17091;SDS011;8661;45.700;4.880;2023-02-17T00:10:40;20.63;;;11.63;;
17091;SDS011;8661;45.700;4.880;2023-02-17T00:13:07;22.83;;;11.30;;
17091;SDS011;8661;45.700;4.880;2023-02-17T00:15:36;21.60;;;12.40;;
17091;SDS011;8661;45.700;4.880;2023-02-17T00:18:03;21.87;;;12.00;;
17091;SDS011;8661;45.700;4.880;2023-02-17T00:20:30;18.50;;;11.40;;
17091;SDS011;8661;45.700;4.880;2023-02-17T00:22:59;20.40;;;11.97;;
17091;SDS011;8661;45.700;4.880;2023-02-17T00:25:26;21.50;;;11.90;;
17091;SDS011;8661;45.700;4.880;2023-02-17T00:27:53;17.10;;;11.53;;
17091;SDS011;8661;45.700;4.880;2023-02-17T00:30:19;21.57;;;12.83;;
17091;SDS011;8661;45.700;4.880;2023-02-17T00:32:46;21.63;;;11.17;;
17091;SDS011;8661;45.700;4.880;2023-02-17T00:35:13;21.13;;;11.63;;
17091;SDS011;8661;45.700;4.880;2023-02-17T00:37:40;18.33;;;10.90;;
17091;SDS011;8661;45.700;4.880;2023-02-17T00:40:11;20.27;;;11.40;;
17091;SDS011;8661;45.700;4.880;2023-02-17T00:42:41;16.83;;;11.60;;
17091;SDS011;8661;45.700;4.880;2023-02-17T00:45:08;20.27;;;11.50;;
17091;SDS011;8661;45.700;4.880;2023-02-17T00:47:35;19.73;;;12.30;;
17091;SDS011;8661;45.700;4.880;2023-02-17T00:50:02;20.43;;;11.13;;
17091;SDS011;8661;45.700;4.880;2023-02-17T00:52:29;20.63;;;11.50;;
17091;SDS011;8661;45.700;4.880;2023-02-17T00:54:56;17.30;;;12.03;;
17091;SDS011;8661;45.700;4.880;2023-02-17T00:57:24;20.70;;;11.30;;
17091;SDS011;8661;45.700;4.880;2023-02-17T00:59:56;21.17;;;11.70;;
17091;SDS011;8661;45.700;4.880;2023-02-17T01:02:23;20.40;;;12.33;;
17091;SDS011;8661;45.700;4.880;2023-02-17T01:04:50;20.00;;;11.80;;
17091;SDS011;8661;45.700;4.880;2023-02-17T01:07:17;19.43;;;11.63;;
17091;SDS011;8661;45.700;4.880;2023-02-17T01:09:44;19.97;;;11.93;;
17091;SDS011;8661;45.700;4.880;2023-02-17T01:12:11;22.13;;;12.77;;
17091;SDS011;8661;45.700;4.880;2023-02-17T01:14:39;20.13;;;12.10;;
17091;SDS011;8661;45.700;4.880;2023-02-17T01:17:06;20.10;;;12.50;;
17091;SDS011;8661;45.700;4.880;2023-02-17T01:19:33;21.23;;;13.03;;
17091;SDS011;8661;45.700;4.880;2023-02-17T01:22:00;19.73;;;12.27;;
17091;SDS011;8661;45.700;4.880;2023-02-17T01:24:27;22.60;;;11.97;;
17091;SDS011;8661;45.700;4.880;2023-02-17T01:26:54;19.40;;;12.90;;
17091;SDS011;8661;45.700;4.880;2023-02-17T01:29:21;22.63;;;12.90;;
17091;SDS011;8661;45.700;4.880;2023-02-17T01:31:50;22.77;;;14.17;;
17091;SDS011;8661;45.700;4.880;2023-02-17T01:34:17;23.63;;;13.93;;
17091;SDS011;8661;45.700;4.880;2023-02-17T01:36:44;23.27;;;14.17;;
17091;SDS011;8661;45.700;4.880;2023-02-17T01:39:11;20.83;;;13.30;;
17091;SDS011;8661;45.700;4.880;2023-02-17T01:41:39;22.63;;;13.40;;
17091;SDS011;8661;45.700;4.880;2023-02-17T01:44:09;22.03;;;14.17;;
17091;SDS011;8661;45.700;4.880;2023-02-17T01:46:39;25.40;;;13.80;;
17091;SDS011;8661;45.700;4.880;2023-02-17T01:49:20;23.33;;;14.87;;
17091;SDS011;8661;45.700;4.880;2023-02-17T01:51:51;23.90;;;15.17;;
17091;SDS011;8661;45.700;4.880;2023-02-17T01:54:23;23.77;;;13.80;;
17091;SDS011;8661;45.700;4.880;2023-02-17T01:56:53;20.90;;;13.93;;
17091;SDS011;8661;45.700;4.880;2023-02-17T01:59:23;22.20;;;13.40;;
17091;SDS011;8661;45.700;4.880;2023-02-17T02:01:51;22.53;;;14.00;;
17091;SDS011;8661;45.700;4.880;2023-02-17T02:04:23;24.40;;;14.67;;
17091;SDS011;8661;45.700;4.880;2023-02-17T02:06:53;23.27;;;13.70;;
17091;SDS011;8661;45.700;4.880;2023-02-17T02:09:21;22.33;;;13.30;;
17091;SDS011;8661;45.700;4.880;2023-02-17T02:11:52;21.70;;;13.83;;
17091;SDS011;8661;45.700;4.880;2023-02-17T02:14:19;20.73;;;13.20;;
17091;SDS011;8661;45.700;4.880;2023-02-17T02:16:49;21.83;;;12.73;;
17091;SDS011;8661;45.700;4.880;2023-02-17T02:19:31;20.90;;;13.60;;
17091;SDS011;8661;45.700;4.880;2023-02-17T02:22:17;21.27;;;12.30;;
17091;SDS011;8661;45.700;4.880;2023-02-17T02:25:07;20.77;;;12.67;;
17091;SDS011;8661;45.700;4.880;2023-02-17T02:27:51;22.60;;;12.50;;
17091;SDS011;8661;45.700;4.880;2023-02-17T02:30:41;20.30;;;11.97;;
17091;SDS011;8661;45.700;4.880;2023-02-17T02:33:21;20.13;;;11.60;;
17091;SDS011;8661;45.700;4.880;2023-02-17T02:35:55;19.77;;;12.97;;
17091;SDS011;8661;45.700;4.880;2023-02-17T02:38:30;21.23;;;12.93;;
17091;SDS011;8661;45.700;4.880;2023-02-17T02:41:03;22.27;;;12.37;;
17091;SDS011;8661;45.700;4.880;2023-02-17T02:43:34;20.27;;;12.73;;
17091;SDS011;8661;45.700;4.880;2023-02-17T02:46:02;25.07;;;13.43;;
17091;SDS011;8661;45.700;4.880;2023-02-17T02:48:31;23.97;;;13.93;;
17091;SDS011;8661;45.700;4.880;2023-02-17T02:54:14;21.67;;;13.27;;
17091;SDS011;8661;45.700;4.880;2023-02-17T02:56:53;26.70;;;13.10;;
17091;SDS011;8661;45.700;4.880;2023-02-17T02:59:33;21.73;;;12.50;;
17091;SDS011;8661;45.700;4.880;2023-02-17T03:02:11;22.53;;;12.63;;
17091;SDS011;8661;45.700;4.880;2023-02-17T03:04:47;24.43;;;13.43;;
17091;SDS011;8661;45.700;4.880;2023-02-17T03:07:20;20.43;;;12.73;;
17091;SDS011;8661;45.700;4.880;2023-02-17T03:09:52;21.73;;;13.83;;
17091;SDS011;8661;45.700;4.880;2023-02-17T03:12:20;21.20;;;12.57;;
17091;SDS011;8661;45.700;4.880;2023-02-17T03:14:48;22.27;;;12.73;;
17091;SDS011;8661;45.700;4.880;2023-02-17T03:17:17;22.10;;;13.07;;
17091;SDS011;8661;45.700;4.880;2023-02-17T03:19:46;22.37;;;13.60;;
17091;SDS011;8661;45.700;4.880;2023-02-17T03:22:14;23.17;;;13.53;;
17091;SDS011;8661;45.700;4.880;2023-02-17T03:24:45;19.30;;;12.97;;
17091;SDS011;8661;45.700;4.880;2023-02-17T03:27:13;21.53;;;14.03;;
17091;SDS011;8661;45.700;4.880;2023-02-17T03:29:40;26.37;;;13.67;;
17091;SDS011;8661;45.700;4.880;2023-02-17T03:32:07;21.03;;;13.57;;
17091;SDS011;8661;45.700;4.880;2023-02-17T03:34:34;24.10;;;14.13;;
17091;SDS011;8661;45.700;4.880;2023-02-17T03:37:02;27.13;;;15.53;;
17091;SDS011;8661;45.700;4.880;2023-02-17T03:39:29;21.53;;;14.23;;
17091;SDS011;8661;45.700;4.880;2023-02-17T03:41:56;29.47;;;15.90;;
17091;SDS011;8661;45.700;4.880;2023-02-17T03:44:23;23.47;;;14.80;;
17091;SDS011;8661;45.700;4.880;2023-02-17T03:46:50;28.53;;;15.43;;
17091;SDS011;8661;45.700;4.880;2023-02-17T03:49:17;25.57;;;15.47;;
17091;SDS011;8661;45.700;4.880;2023-02-17T03:51:44;28.23;;;16.43;;
17091;SDS011;8661;45.700;4.880;2023-02-17T03:54:12;25.83;;;15.53;;
17091;SDS011;8661;45.700;4.880;2023-02-17T03:56:39;26.83;;;14.67;;
17091;SDS011;8661;45.700;4.880;2023-02-17T03:59:06;24.67;;;14.77;;
17091;SDS011;8661;45.700;4.880;2023-02-17T04:01:33;25.83;;;15.43;;
17091;SDS011;8661;45.700;4.880;2023-02-17T04:04:00;25.63;;;15.70;;
17091;SDS011;8661;45.700;4.880;2023-02-17T04:06:28;24.70;;;15.20;;
17091;SDS011;8661;45.700;4.880;2023-02-17T04:08:55;28.37;;;14.73;;
17091;SDS011;8661;45.700;4.880;2023-02-17T04:11:23;26.83;;;15.17;;
17091;SDS011;8661;45.700;4.880;2023-02-17T04:13:50;31.70;;;14.90;;
17091;SDS011;8661;45.700;4.880;2023-02-17T04:16:17;24.10;;;14.20;;
17091;SDS011;8661;45.700;4.880;2023-02-17T04:18:44;23.70;;;14.87;;
17091;SDS011;8661;45.700;4.880;2023-02-17T04:21:11;23.83;;;14.80;;
17091;SDS011;8661;45.700;4.880;2023-02-17T04:23:38;24.47;;;15.60;;
17091;SDS011;8661;45.700;4.880;2023-02-17T04:26:05;23.70;;;14.40;;
17091;SDS011;8661;45.700;4.880;2023-02-17T04:28:36;25.93;;;15.97;;
17091;SDS011;8661;45.700;4.880;2023-02-17T04:31:04;26.90;;;15.13;;
17091;SDS011;8661;45.700;4.880;2023-02-17T04:33:31;27.07;;;15.73;;
17091;SDS011;8661;45.700;4.880;2023-02-17T04:35:58;23.00;;;14.67;;
17091;SDS011;8661;45.700;4.880;2023-02-17T04:38:25;27.03;;;15.40;;
17091;SDS011;8661;45.700;4.880;2023-02-17T04:40:54;27.30;;;15.57;;
17091;SDS011;8661;45.700;4.880;2023-02-17T04:43:22;28.20;;;15.17;;
17091;SDS011;8661;45.700;4.880;2023-02-17T04:45:51;24.03;;;15.23;;
17091;SDS011;8661;45.700;4.880;2023-02-17T04:48:19;24.37;;;15.97;;
17091;SDS011;8661;45.700;4.880;2023-02-17T04:50:46;24.10;;;14.87;;
17091;SDS011;8661;45.700;4.880;2023-02-17T04:53:13;28.17;;;15.90;;
17091;SDS011;8661;45.700;4.880;2023-02-17T04:55:40;29.63;;;16.23;;
17091;SDS011;8661;45.700;4.880;2023-02-17T04:58:08;32.57;;;17.00;;
17091;SDS011;8661;45.700;4.880;2023-02-17T05:00:35;26.43;;;15.93;;
17091;SDS011;8661;45.700;4.880;2023-02-17T05:03:04;30.40;;;16.50;;
17091;SDS011;8661;45.700;4.880;2023-02-17T05:05:31;26.97;;;16.47;;
17091;SDS011;8661;45.700;4.880;2023-02-17T05:07:58;26.13;;;15.47;;
17091;SDS011;8661;45.700;4.880;2023-02-17T05:10:26;36.57;;;18.57;;
17091;SDS011;8661;45.700;4.880;2023-02-17T05:12:53;38.50;;;20.70;;
17091;SDS011;8661;45.700;4.880;2023-02-17T05:15:19;42.60;;;20.60;;
17091;SDS011;8661;45.700;4.880;2023-02-17T05:17:46;40.20;;;21.10;;
17091;SDS011;8661;45.700;4.880;2023-02-17T05:20:15;41.97;;;21.60;;
17091;SDS011;8661;45.700;4.880;2023-02-17T05:22:42;41.43;;;20.97;;
17091;SDS011;8661;45.700;4.880;2023-02-17T05:25:09;30.20;;;16.53;;
17091;SDS011;8661;45.700;4.880;2023-02-17T05:27:36;27.80;;;15.47;;
17091;SDS011;8661;45.700;4.880;2023-02-17T05:30:03;24.13;;;14.73;;
17091;SDS011;8661;45.700;4.880;2023-02-17T05:32:31;24.90;;;16.13;;
17091;SDS011;8661;45.700;4.880;2023-02-17T05:34:58;28.87;;;16.03;;
17091;SDS011;8661;45.700;4.880;2023-02-17T05:37:26;27.27;;;15.77;;
17091;SDS011;8661;45.700;4.880;2023-02-17T05:39:53;24.03;;;15.53;;
17091;SDS011;8661;45.700;4.880;2023-02-17T05:42:20;29.00;;;17.30;;
17091;SDS011;8661;45.700;4.880;2023-02-17T05:44:47;29.50;;;16.57;;
17091;SDS011;8661;45.700;4.880;2023-02-17T05:47:14;26.03;;;16.73;;
17091;SDS011;8661;45.700;4.880;2023-02-17T05:49:43;30.60;;;16.63;;
17091;SDS011;8661;45.700;4.880;2023-02-17T05:52:10;27.17;;;15.90;;
17091;SDS011;8661;45.700;4.880;2023-02-17T05:54:38;23.07;;;15.53;;
17091;SDS011;8661;45.700;4.880;2023-02-17T05:57:05;28.37;;;16.40;;
17091;SDS011;8661;45.700;4.880;2023-02-17T05:59:32;31.60;;;17.33;;
17091;SDS011;8661;45.700;4.880;2023-02-17T06:01:59;36.03;;;17.37;;
17091;SDS011;8661;45.700;4.880;2023-02-17T06:04:26;25.63;;;15.47;;
17091;SDS011;8661;45.700;4.880;2023-02-17T06:06:53;30.80;;;17.00;;
17091;SDS011;8661;45.700;4.880;2023-02-17T06:09:20;35.23;;;17.17;;
17091;SDS011;8661;45.700;4.880;2023-02-17T06:11:48;27.33;;;15.97;;
17091;SDS011;8661;45.700;4.880;2023-02-17T06:14:16;31.27;;;16.70;;
17091;SDS011;8661;45.700;4.880;2023-02-17T06:16:43;26.50;;;16.23;;
17091;SDS011;8661;45.700;4.880;2023-02-17T06:19:10;27.77;;;16.10;;
17091;SDS011;8661;45.700;4.880;2023-02-17T06:21:36;27.20;;;16.27;;
17091;SDS011;8661;45.700;4.880;2023-02-17T06:24:04;25.67;;;16.10;;
17091;SDS011;8661;45.700;4.880;2023-02-17T06:26:31;30.17;;;16.57;;
17091;SDS011;8661;45.700;4.880;2023-02-17T06:29:00;24.97;;;16.60;;
17091;SDS011;8661;45.700;4.880;2023-02-17T06:31:27;28.77;;;16.97;;
17091;SDS011;8661;45.700;4.880;2023-02-17T06:33:54;29.17;;;16.47;;
17091;SDS011;8661;45.700;4.880;2023-02-17T06:36:20;30.60;;;18.30;;
17091;SDS011;8661;45.700;4.880;2023-02-17T06:38:47;25.07;;;16.37;;
17091;SDS011;8661;45.700;4.880;2023-02-17T06:41:14;27.87;;;16.60;;
17091;SDS011;8661;45.700;4.880;2023-02-17T06:43:41;31.50;;;17.37;;
17091;SDS011;8661;45.700;4.880;2023-02-17T06:46:10;25.70;;;15.37;;
17091;SDS011;8661;45.700;4.880;2023-02-17T06:48:37;36.57;;;17.47;;
17091;SDS011;8661;45.700;4.880;2023-02-17T06:51:04;25.53;;;15.20;;
17091;SDS011;8661;45.700;4.880;2023-02-17T06:53:31;28.00;;;15.97;;
17091;SDS011;8661;45.700;4.880;2023-02-17T06:55:58;33.30;;;16.20;;
17091;SDS011;8661;45.700;4.880;2023-02-17T06:58:25;27.03;;;16.17;;
17091;SDS011;8661;45.700;4.880;2023-02-17T07:00:52;23.93;;;15.17;;
17091;SDS011;8661;45.700;4.880;2023-02-17T07:03:20;27.13;;;15.90;;
17091;SDS011;8661;45.700;4.880;2023-02-17T07:05:47;24.13;;;15.30;;
17091;SDS011;8661;45.700;4.880;2023-02-17T07:08:15;25.97;;;15.90;;
17091;SDS011;8661;45.700;4.880;2023-02-17T07:10:42;26.47;;;16.53;;
17091;SDS011;8661;45.700;4.880;2023-02-17T07:13:09;27.07;;;16.43;;
17091;SDS011;8661;45.700;4.880;2023-02-17T07:15:36;28.83;;;16.43;;
17091;SDS011;8661;45.700;4.880;2023-02-17T07:18:03;27.53;;;14.67;;
17091;SDS011;8661;45.700;4.880;2023-02-17T07:20:31;26.77;;;16.00;;
17091;SDS011;8661;45.700;4.880;2023-02-17T07:22:59;24.63;;;15.90;;
17091;SDS011;8661;45.700;4.880;2023-02-17T07:25:26;25.53;;;16.53;;
17091;SDS011;8661;45.700;4.880;2023-02-17T07:27:53;23.23;;;15.63;;
17091;SDS011;8661;45.700;4.880;2023-02-17T07:30:20;28.07;;;17.10;;
17091;SDS011;8661;45.700;4.880;2023-02-17T07:32:47;26.13;;;15.60;;
17091;SDS011;8661;45.700;4.880;2023-02-17T07:35:14;27.40;;;16.10;;
17091;SDS011;8661;45.700;4.880;2023-02-17T07:37:42;29.07;;;16.60;;
17091;SDS011;8661;45.700;4.880;2023-02-17T07:40:09;28.67;;;17.50;;
17091;SDS011;8661;45.700;4.880;2023-02-17T07:42:37;29.67;;;17.53;;
17091;SDS011;8661;45.700;4.880;2023-02-17T07:45:04;31.17;;;16.50;;
17091;SDS011;8661;45.700;4.880;2023-02-17T07:47:31;24.97;;;15.60;;
17091;SDS011;8661;45.700;4.880;2023-02-17T07:49:58;27.30;;;17.37;;
17091;SDS011;8661;45.700;4.880;2023-02-17T07:52:25;29.27;;;16.93;;
17091;SDS011;8661;45.700;4.880;2023-02-17T07:54:54;25.80;;;16.10;;
17091;SDS011;8661;45.700;4.880;2023-02-17T07:57:21;27.33;;;17.63;;
17091;SDS011;8661;45.700;4.880;2023-02-17T07:59:48;27.03;;;17.57;;
17091;SDS011;8661;45.700;4.880;2023-02-17T08:02:15;29.63;;;18.60;;
17091;SDS011;8661;45.700;4.880;2023-02-17T08:04:42;28.70;;;19.03;;
17091;SDS011;8661;45.700;4.880;2023-02-17T08:07:09;31.87;;;20.37;;
17091;SDS011;8661;45.700;4.880;2023-02-17T08:09:36;29.47;;;18.23;;
17091;SDS011;8661;45.700;4.880;2023-02-17T08:12:22;26.13;;;18.13;;
17091;SDS011;8661;45.700;4.880;2023-02-17T08:15:07;27.27;;;18.33;;
17091;SDS011;8661;45.700;4.880;2023-02-17T08:17:35;31.03;;;18.77;;
17091;SDS011;8661;45.700;4.880;2023-02-17T08:20:03;26.67;;;17.90;;
17091;SDS011;8661;45.700;4.880;2023-02-17T08:22:31;31.33;;;19.53;;
17091;SDS011;8661;45.700;4.880;2023-02-17T08:24:58;32.40;;;18.87;;
17091;SDS011;8661;45.700;4.880;2023-02-17T08:27:26;27.17;;;18.77;;
17091;SDS011;8661;45.700;4.880;2023-02-17T08:29:53;31.63;;;19.50;;
17091;SDS011;8661;45.700;4.880;2023-02-17T08:32:20;30.40;;;19.20;;
17091;SDS011;8661;45.700;4.880;2023-02-17T08:34:47;28.73;;;19.07;;
17091;SDS011;8661;45.700;4.880;2023-02-17T08:37:14;33.17;;;20.80;;
17091;SDS011;8661;45.700;4.880;2023-02-17T08:39:41;28.40;;;19.33;;
17091;SDS011;8661;45.700;4.880;2023-02-17T08:42:08;30.73;;;19.10;;
17091;SDS011;8661;45.700;4.880;2023-02-17T08:44:37;33.07;;;19.30;;
17091;SDS011;8661;45.700;4.880;2023-02-17T08:47:04;33.27;;;18.43;;
17091;SDS011;8661;45.700;4.880;2023-02-17T08:49:32;29.07;;;18.90;;
17091;SDS011;8661;45.700;4.880;2023-02-17T08:52:00;34.70;;;19.20;;
17091;SDS011;8661;45.700;4.880;2023-02-17T08:54:28;30.03;;;18.00;;
17091;SDS011;8661;45.700;4.880;2023-02-17T08:56:56;34.53;;;18.50;;
17091;SDS011;8661;45.700;4.880;2023-02-17T08:59:23;33.67;;;20.23;;
17091;SDS011;8661;45.700;4.880;2023-02-17T09:01:52;31.90;;;19.60;;
17091;SDS011;8661;45.700;4.880;2023-02-17T09:04:20;32.90;;;19.37;;
17091;SDS011;8661;45.700;4.880;2023-02-17T09:06:47;27.07;;;18.43;;
17091;SDS011;8661;45.700;4.880;2023-02-17T09:09:16;28.00;;;18.23;;
17091;SDS011;8661;45.700;4.880;2023-02-17T09:11:46;33.67;;;19.50;;
17091;SDS011;8661;45.700;4.880;2023-02-17T09:14:13;35.63;;;19.43;;
17091;SDS011;8661;45.700;4.880;2023-02-17T09:16:40;41.00;;;19.20;;
17091;SDS011;8661;45.700;4.880;2023-02-17T09:19:09;34.97;;;19.40;;
17091;SDS011;8661;45.700;4.880;2023-02-17T09:21:36;28.53;;;18.30;;
17091;SDS011;8661;45.700;4.880;2023-02-17T09:24:22;35.03;;;19.50;;
17091;SDS011;8661;45.700;4.880;2023-02-17T09:26:49;32.20;;;18.60;;
17091;SDS011;8661;45.700;4.880;2023-02-17T09:29:16;33.00;;;18.93;;
17091;SDS011;8661;45.700;4.880;2023-02-17T09:31:43;32.30;;;19.60;;
17091;SDS011;8661;45.700;4.880;2023-02-17T09:34:12;34.97;;;18.73;;
17091;SDS011;8661;45.700;4.880;2023-02-17T09:36:40;36.37;;;20.53;;
17091;SDS011;8661;45.700;4.880;2023-02-17T09:39:10;35.10;;;20.53;;
17091;SDS011;8661;45.700;4.880;2023-02-17T09:41:40;36.27;;;20.10;;
17091;SDS011;8661;45.700;4.880;2023-02-17T09:44:15;31.70;;;19.47;;
17091;SDS011;8661;45.700;4.880;2023-02-17T09:46:47;30.63;;;19.20;;
17091;SDS011;8661;45.700;4.880;2023-02-17T09:49:21;32.70;;;19.60;;
17091;SDS011;8661;45.700;4.880;2023-02-17T09:51:53;33.87;;;18.47;;
17091;SDS011;8661;45.700;4.880;2023-02-17T09:54:26;30.67;;;18.70;;
17091;SDS011;8661;45.700;4.880;2023-02-17T09:56:57;32.13;;;19.23;;
17091;SDS011;8661;45.700;4.880;2023-02-17T09:59:29;30.73;;;19.57;;
17091;SDS011;8661;45.700;4.880;2023-02-17T10:02:04;34.40;;;18.50;;
17091;SDS011;8661;45.700;4.880;2023-02-17T10:04:35;31.97;;;18.93;;
17091;SDS011;8661;45.700;4.880;2023-02-17T10:07:06;29.03;;;18.80;;
17091;SDS011;8661;45.700;4.880;2023-02-17T10:09:38;27.77;;;18.50;;
17091;SDS011;8661;45.700;4.880;2023-02-17T10:12:14;28.10;;;18.20;;
17091;SDS011;8661;45.700;4.880;2023-02-17T10:14:45;27.17;;;18.67;;
17091;SDS011;8661;45.700;4.880;2023-02-17T10:17:16;32.93;;;18.83;;
17091;SDS011;8661;45.700;4.880;2023-02-17T10:19:52;28.10;;;18.50;;
17091;SDS011;8661;45.700;4.880;2023-02-17T10:22:22;22.53;;;17.43;;
17091;SDS011;8661;45.700;4.880;2023-02-17T10:24:51;23.33;;;16.33;;
17091;SDS011;8661;45.700;4.880;2023-02-17T10:27:22;21.50;;;15.93;;
17091;SDS011;8661;45.700;4.880;2023-02-17T10:29:56;21.30;;;15.07;;
17091;SDS011;8661;45.700;4.880;2023-02-17T10:32:35;22.70;;;15.67;;
17091;SDS011;8661;45.700;4.880;2023-02-17T10:35:16;21.87;;;15.40;;
17091;SDS011;8661;45.700;4.880;2023-02-17T10:37:48;19.47;;;14.53;;
17091;SDS011;8661;45.700;4.880;2023-02-17T10:40:18;25.47;;;14.27;;
17091;SDS011;8661;45.700;4.880;2023-02-17T10:42:49;20.67;;;14.10;;
17091;SDS011;8661;45.700;4.880;2023-02-17T10:45:20;18.17;;;13.80;;
17091;SDS011;8661;45.700;4.880;2023-02-17T10:47:55;22.40;;;15.77;;
17091;SDS011;8661;45.700;4.880;2023-02-17T10:50:28;21.33;;;14.40;;
17091;SDS011;8661;45.700;4.880;2023-02-17T10:52:56;19.43;;;14.17;;
17091;SDS011;8661;45.700;4.880;2023-02-17T10:55:25;18.30;;;14.40;;
17091;SDS011;8661;45.700;4.880;2023-02-17T10:58:00;22.50;;;14.90;;
17091;SDS011;8661;45.700;4.880;2023-02-17T11:00:36;24.27;;;15.43;;
17091;SDS011;8661;45.700;4.880;2023-02-17T11:03:03;20.13;;;15.20;;
17091;SDS011;8661;45.700;4.880;2023-02-17T11:05:32;22.03;;;14.57;;
17091;SDS011;8661;45.700;4.880;2023-02-17T11:08:01;22.47;;;15.20;;
17091;SDS011;8661;45.700;4.880;2023-02-17T11:10:32;22.27;;;15.70;;
17091;SDS011;8661;45.700;4.880;2023-02-17T11:13:01;21.87;;;15.30;;
17091;SDS011;8661;45.700;4.880;2023-02-17T11:15:30;29.60;;;15.30;;
17091;SDS011;8661;45.700;4.880;2023-02-17T11:18:00;25.57;;;16.00;;
17091;SDS011;8661;45.700;4.880;2023-02-17T11:20:36;25.57;;;15.10;;
17091;SDS011;8661;45.700;4.880;2023-02-17T11:23:19;24.87;;;16.13;;
17091;SDS011;8661;45.700;4.880;2023-02-17T11:25:55;26.30;;;16.20;;
17091;SDS011;8661;45.700;4.880;2023-02-17T11:28:24;25.80;;;18.30;;
17091;SDS011;8661;45.700;4.880;2023-02-17T11:30:52;28.47;;;16.30;;
17091;SDS011;8661;45.700;4.880;2023-02-17T11:33:22;27.13;;;17.73;;
17091;SDS011;8661;45.700;4.880;2023-02-17T11:35:55;36.93;;;19.43;;
17091;SDS011;8661;45.700;4.880;2023-02-17T11:38:24;35.97;;;19.47;;
17091;SDS011;8661;45.700;4.880;2023-02-17T11:40:54;36.47;;;18.27;;
17091;SDS011;8661;45.700;4.880;2023-02-17T11:43:23;34.43;;;18.10;;
17091;SDS011;8661;45.700;4.880;2023-02-17T11:45:57;32.37;;;18.57;;
17091;SDS011;8661;45.700;4.880;2023-02-17T11:51:47;34.43;;;18.30;;
17091;SDS011;8661;45.700;4.880;2023-02-17T11:54:22;35.17;;;18.53;;
17091;SDS011;8661;45.700;4.880;2023-02-17T11:56:56;38.10;;;18.50;;
17091;SDS011;8661;45.700;4.880;2023-02-17T11:59:32;35.40;;;17.80;;
17091;SDS011;8661;45.700;4.880;2023-02-17T12:02:16;31.97;;;17.73;;
17091;SDS011;8661;45.700;4.880;2023-02-17T12:04:52;32.67;;;17.73;;
17091;SDS011;8661;45.700;4.880;2023-02-17T12:07:35;32.03;;;19.40;;
17091;SDS011;8661;45.700;4.880;2023-02-17T12:10:11;32.00;;;18.10;;
17091;SDS011;8661;45.700;4.880;2023-02-17T12:12:55;39.30;;;17.90;;
17091;SDS011;8661;45.700;4.880;2023-02-17T12:15:33;40.37;;;17.70;;
17091;SDS011;8661;45.700;4.880;2023-02-17T12:18:13;31.60;;;17.20;;
17091;SDS011;8661;45.700;4.880;2023-02-17T12:20:55;37.03;;;18.17;;
17091;SDS011;8661;45.700;4.880;2023-02-17T12:23:34;35.47;;;18.13;;
17091;SDS011;8661;45.700;4.880;2023-02-17T12:26:15;34.80;;;17.40;;
17091;SDS011;8661;45.700;4.880;2023-02-17T12:28:52;35.03;;;18.33;;
17091;SDS011;8661;45.700;4.880;2023-02-17T12:31:37;34.93;;;17.97;;
17091;SDS011;8661;45.700;4.880;2023-02-17T12:34:17;37.40;;;17.97;;
17091;SDS011;8661;45.700;4.880;2023-02-17T12:36:50;31.07;;;19.13;;
17091;SDS011;8661;45.700;4.880;2023-02-17T12:39:19;39.63;;;18.70;;
17091;SDS011;8661;45.700;4.880;2023-02-17T12:41:50;33.03;;;18.57;;
17091;SDS011;8661;45.700;4.880;2023-02-17T12:44:21;37.23;;;19.63;;
17091;SDS011;8661;45.700;4.880;2023-02-17T12:46:51;36.90;;;20.73;;
17091;SDS011;8661;45.700;4.880;2023-02-17T12:49:22;33.20;;;18.33;;
17091;SDS011;8661;45.700;4.880;2023-02-17T12:51:57;33.93;;;15.73;;
17091;SDS011;8661;45.700;4.880;2023-02-17T12:54:31;29.93;;;15.73;;
17091;SDS011;8661;45.700;4.880;2023-02-17T12:57:04;43.07;;;17.93;;
17091;SDS011;8661;45.700;4.880;2023-02-17T12:59:39;31.20;;;16.77;;
17091;SDS011;8661;45.700;4.880;2023-02-17T13:02:09;27.60;;;14.30;;
17091;SDS011;8661;45.700;4.880;2023-02-17T13:04:37;27.07;;;13.53;;
17091;SDS011;8661;45.700;4.880;2023-02-17T13:07:14;26.37;;;13.17;;
17091;SDS011;8661;45.700;4.880;2023-02-17T13:09:57;27.20;;;14.20;;
17091;SDS011;8661;45.700;4.880;2023-02-17T13:12:32;24.97;;;12.73;;
17091;SDS011;8661;45.700;4.880;2023-02-17T13:15:01;26.70;;;12.60;;
17091;SDS011;8661;45.700;4.880;2023-02-17T13:17:30;19.70;;;11.33;;
17091;SDS011;8661;45.700;4.880;2023-02-17T13:20:00;17.83;;;9.90;;
17091;SDS011;8661;45.700;4.880;2023-02-17T13:22:48;17.57;;;9.30;;
17091;SDS011;8661;45.700;4.880;2023-02-17T13:25:27;17.00;;;7.50;;
17091;SDS011;8661;45.700;4.880;2023-02-17T13:27:56;12.57;;;6.03;;
17091;SDS011;8661;45.700;4.880;2023-02-17T13:30:28;16.77;;;6.50;;
17091;SDS011;8661;45.700;4.880;2023-02-17T13:33:04;15.00;;;6.73;;
17091;SDS011;8661;45.700;4.880;2023-02-17T13:35:32;15.77;;;7.10;;
17091;SDS011;8661;45.700;4.880;2023-02-17T13:38:00;10.50;;;4.90;;
17091;SDS011;8661;45.700;4.880;2023-02-17T13:40:33;11.50;;;6.07;;
17091;SDS011;8661;45.700;4.880;2023-02-17T13:43:09;15.27;;;7.27;;
17091;SDS011;8661;45.700;4.880;2023-02-17T13:45:41;14.60;;;8.73;;
17091;SDS011;8661;45.700;4.880;2023-02-17T13:48:11;14.93;;;9.07;;
17091;SDS011;8661;45.700;4.880;2023-02-17T13:50:42;19.83;;;9.00;;
17091;SDS011;8661;45.700;4.880;2023-02-17T13:53:25;16.03;;;7.57;;
17091;SDS011;8661;45.700;4.880;2023-02-17T13:55:55;13.03;;;7.83;;
17091;SDS011;8661;45.700;4.880;2023-02-17T13:58:24;19.67;;;9.00;;
17091;SDS011;8661;45.700;4.880;2023-02-17T14:00:55;18.87;;;7.90;;
17091;SDS011;8661;45.700;4.880;2023-02-17T14:03:24;14.63;;;7.70;;
17091;SDS011;8661;45.700;4.880;2023-02-17T14:05:54;15.10;;;7.33;;
17091;SDS011;8661;45.700;4.880;2023-02-17T14:08:25;11.63;;;6.50;;
17091;SDS011;8661;45.700;4.880;2023-02-17T14:11:02;16.27;;;7.17;;
17091;SDS011;8661;45.700;4.880;2023-02-17T14:13:33;11.90;;;7.00;;
17091;SDS011;8661;45.700;4.880;2023-02-17T14:16:00;17.90;;;8.00;;
17091;SDS011;8661;45.700;4.880;2023-02-17T14:18:30;16.23;;;7.83;;
17091;SDS011;8661;45.700;4.880;2023-02-17T14:21:00;12.17;;;7.10;;
17091;SDS011;8661;45.700;4.880;2023-02-17T14:23:38;16.07;;;7.17;;
17091;SDS011;8661;45.700;4.880;2023-02-17T14:26:13;17.07;;;7.53;;
17091;SDS011;8661;45.700;4.880;2023-02-17T14:28:53;20.00;;;7.73;;
17091;SDS011;8661;45.700;4.880;2023-02-17T14:31:21;17.27;;;7.37;;
17091;SDS011;8661;45.700;4.880;2023-02-17T14:33:56;12.27;;;6.90;;
17091;SDS011;8661;45.700;4.880;2023-02-17T14:36:28;15.87;;;7.00;;
17091;SDS011;8661;45.700;4.880;2023-02-17T14:38:58;13.77;;;7.00;;
17091;SDS011;8661;45.700;4.880;2023-02-17T14:41:27;16.40;;;7.70;;
17091;SDS011;8661;45.700;4.880;2023-02-17T14:43:54;17.27;;;6.93;;
17091;SDS011;8661;45.700;4.880;2023-02-17T14:46:22;17.80;;;8.10;;
17091;SDS011;8661;45.700;4.880;2023-02-17T14:48:49;15.63;;;7.67;;
17091;SDS011;8661;45.700;4.880;2023-02-17T14:51:17;18.43;;;6.20;;
17091;SDS011;8661;45.700;4.880;2023-02-17T14:53:46;15.37;;;6.77;;
17091;SDS011;8661;45.700;4.880;2023-02-17T14:56:17;11.03;;;6.20;;
17091;SDS011;8661;45.700;4.880;2023-02-17T14:58:48;9.87;;;5.80;;